Time;durP1;ratioP1;P1;durP2;ratioP2;P2;SDS_P1;SDS_P2;PMS_P1;PMS_P2;Temp;Humidity;BMP_temperature;BMP_pressure;BME280_temperature;BME280_humidity;BME280_pressure;Samples;Min_cycle;Max_cycle;Signal;HPM_P1;HPM_P2
2023/05/29 00:01:27;;;;;;;7.00;2.80;;;;;;;14.56;42.18;100394.65;103057;1257;137607;-71
2023/05/29 00:03:55;;;;;;;7.10;2.90;;;;;;;14.52;42.26;100398.15;102990;1256;97687;-71
2023/05/29 00:06:32;;;;;;;4.90;2.70;;;;;;;14.48;42.39;100394.64;103125;1256;138071;-71
2023/05/29 00:08:59;;;;;;;8.30;2.90;;;;;;;14.45;42.37;100390.58;103194;1258;107118;-71
2023/05/29 00:11:26;;;;;;;4.90;2.50;;;;;;;14.43;42.57;100388.91;103249;1258;97807;-71
2023/05/29 00:13:54;;;;;;;5.10;2.60;;;;;;;14.41;42.65;100390.92;102946;1258;137625;-71
2023/05/29 00:16:23;;;;;;;8.70;3.10;;;;;;;14.38;42.59;100388.45;103172;1256;97736;-70
2023/05/29 00:18:51;;;;;;;11.70;2.60;;;;;;;14.35;42.74;100387.34;103164;1258;137804;-71
2023/05/29 00:21:26;;;;;;;9.40;3.00;;;;;;;14.31;42.72;100383.17;103686;1255;108856;-71
2023/05/29 00:23:53;;;;;;;4.00;2.40;;;;;;;14.28;42.79;100382.09;103224;1256;98503;-71
2023/05/29 00:26:21;;;;;;;6.20;2.70;;;;;;;14.25;42.80;100383.80;103051;1258;137636;-71
2023/05/29 00:28:50;;;;;;;5.30;2.30;;;;;;;14.24;42.95;100384.04;103159;1259;97792;-70
2023/05/29 00:31:25;;;;;;;4.80;2.70;;;;;;;14.20;42.98;100385.95;103097;1255;137707;-71
2023/05/29 00:33:53;;;;;;;8.50;2.60;;;;;;;14.17;43.19;100385.02;103127;1257;107700;-71
2023/05/29 00:36:21;;;;;;;12.00;3.10;;;;;;;14.12;43.15;100385.06;103168;1258;137973;-72
2023/05/29 00:38:57;;;;;;;7.90;2.80;;;;;;;14.08;43.40;100387.86;103181;1258;107950;-71
2023/05/29 00:41:25;;;;;;;10.20;3.00;;;;;;;14.03;43.38;100383.19;103189;1255;97810;-71
2023/05/29 00:43:52;;;;;;;8.80;2.90;;;;;;;14.00;43.59;100387.17;103072;1256;137779;-69
2023/05/29 00:46:26;;;;;;;4.70;2.70;;;;;;;13.96;43.51;100387.20;103203;1256;107585;-72
2023/05/29 00:48:54;;;;;;;4.30;2.40;;;;;;;13.92;43.70;100387.36;102985;1257;138301;-70
2023/05/29 00:51:21;;;;;;;11.20;3.00;;;;;;;13.89;43.77;100388.35;103165;1258;107437;-71
2023/05/29 00:53:54;;;;;;;8.30;2.80;;;;;;;13.86;43.81;100389.01;103177;1255;97923;-70
2023/05/29 00:56:22;;;;;;;4.40;2.70;;;;;;;13.83;43.88;100391.59;103020;1256;137656;-70
2023/05/29 00:58:50;;;;;;;7.80;2.60;;;;;;;13.80;43.97;100388.20;103078;1258;107684;-70
2023/05/29 01:01:18;;;;;;;6.70;3.50;;;;;;;13.78;44.02;100386.40;102899;1256;138177;-70
2023/05/29 01:03:48;;;;;;;10.50;2.70;;;;;;;13.75;44.04;100389.30;102974;1256;108045;-70
2023/05/29 01:06:26;;;;;;;6.50;2.70;;;;;;;13.73;44.27;100385.73;102978;1257;138371;-71
2023/05/29 01:08:53;;;;;;;5.90;2.60;;;;;;;13.72;44.21;100386.66;103092;1258;110981;-70
2023/05/29 01:11:32;;;;;;;7.30;3.10;;;;;;;13.71;44.36;100385.30;102883;1258;107633;-70
2023/05/29 01:14:07;;;;;;;7.80;2.50;;;;;;;13.69;44.41;100384.85;103715;1255;138270;-71
2023/05/29 01:16:44;;;;;;;6.50;2.90;;;;;;;13.66;44.50;100386.06;103030;1258;108010;-71
2023/05/29 01:19:25;;;;;;;6.70;3.10;;;;;;;13.63;44.78;100387.02;102909;1256;138677;-70
2023/05/29 01:22:05;;;;;;;8.70;2.70;;;;;;;13.61;44.81;100382.56;103143;1255;110733;-71
2023/05/29 01:24:45;;;;;;;5.30;2.90;;;;;;;13.59;44.94;100383.20;102989;1255;137990;-71
2023/05/29 01:27:17;;;;;;;7.00;3.00;;;;;;;13.55;45.03;100383.16;102973;1260;97736;-70
2023/05/29 01:29:47;;;;;;;7.90;2.80;;;;;;;13.52;45.13;100379.79;103064;1255;107259;-71
2023/05/29 01:32:14;;;;;;;6.60;2.90;;;;;;;13.49;45.14;100377.50;103106;1256;138284;-71
2023/05/29 01:34:44;;;;;;;4.90;2.90;;;;;;;13.47;45.17;100379.16;103104;1256;111240;-71
2023/05/29 01:37:14;;;;;;;10.80;3.30;;;;;;;13.44;45.27;100378.90;103026;1258;138390;-71
2023/05/29 01:39:42;;;;;;;8.10;3.20;;;;;;;13.42;45.45;100383.00;103153;1257;97793;-71
2023/05/29 01:42:10;;;;;;;7.30;3.30;;;;;;;13.41;45.58;100388.66;103102;1256;109301;-70
2023/05/29 01:44:39;;;;;;;7.60;3.10;;;;;;;13.38;45.76;100384.42;103068;1256;137673;-71
2023/05/29 01:47:09;;;;;;;6.60;3.10;;;;;;;13.36;45.89;100387.67;103198;1256;111358;-71
2023/05/29 01:49:44;;;;;;;6.00;2.90;;;;;;;13.33;46.05;100387.95;103052;1255;137770;-71
2023/05/29 01:52:14;;;;;;;7.80;3.00;;;;;;;13.28;46.09;100385.52;103153;1257;97882;-71
2023/05/29 01:54:41;;;;;;;12.30;3.40;;;;;;;13.26;46.21;100385.78;102894;1257;137836;-70
2023/05/29 01:57:11;;;;;;;5.50;2.90;;;;;;;13.23;46.33;100384.48;103109;1256;97799;-71
2023/05/29 01:59:40;;;;;;;9.70;3.30;;;;;;;13.20;46.47;100384.98;103161;1255;111689;-71
2023/05/29 02:02:11;;;;;;;4.90;3.00;;;;;;;13.18;46.40;100381.40;102909;1261;138026;-71
2023/05/29 02:04:39;;;;;;;7.90;3.50;;;;;;;13.15;46.66;100378.68;103210;1258;98182;-71
2023/05/29 02:07:09;;;;;;;7.90;3.00;;;;;;;13.14;46.69;100383.10;103017;1256;137706;-70
2023/05/29 02:09:37;;;;;;;11.30;3.20;;;;;;;13.12;46.73;100376.20;103202;1256;97739;-71
2023/05/29 02:12:08;;;;;;;8.70;3.20;;;;;;;13.11;46.83;100373.11;102979;1261;110054;-71
2023/05/29 02:14:40;;;;;;;9.50;3.20;;;;;;;13.08;46.94;100368.13;102974;1258;138198;-71
2023/05/29 02:17:09;;;;;;;5.70;2.90;;;;;;;13.06;46.97;100362.28;102956;1261;98315;-71
2023/05/29 02:19:36;;;;;;;9.20;3.10;;;;;;;13.06;47.15;100361.42;102906;1259;137686;-71
2023/05/29 02:22:04;;;;;;;9.40;3.50;;;;;;;13.04;47.11;100358.02;103065;1255;97796;-70
2023/05/29 02:24:34;;;;;;;6.60;3.10;;;;;;;13.04;47.19;100360.11;102896;1256;138221;-71
2023/05/29 02:27:03;;;;;;;10.70;3.70;;;;;;;13.02;47.35;100360.71;103095;1256;109294;-70
2023/05/29 02:29:30;;;;;;;6.40;3.20;;;;;;;13.00;47.25;100358.52;103522;1256;98103;-71
2023/05/29 02:31:58;;;;;;;7.00;3.10;;;;;;;12.99;47.39;100359.79;103023;1256;137858;-70
2023/05/29 02:34:25;;;;;;;6.30;3.00;;;;;;;12.99;47.31;100355.77;103128;1258;97865;-70
2023/05/29 02:36:52;;;;;;;7.10;2.90;;;;;;;12.99;47.19;100352.77;102989;1260;138210;-71
2023/05/29 02:39:20;;;;;;;6.50;3.30;;;;;;;13.01;47.22;100353.27;103078;1259;107589;-71
2023/05/29 02:41:47;;;;;;;6.40;2.80;;;;;;;13.02;47.19;100352.86;103010;1256;97713;-71
2023/05/29 02:44:15;;;;;;;9.80;3.30;;;;;;;13.04;47.24;100352.11;102949;1256;137625;-71
2023/05/29 02:46:44;;;;;;;7.50;3.10;;;;;;;13.04;47.24;100348.93;102986;1256;97784;-71
2023/05/29 02:49:12;;;;;;;8.60;3.30;;;;;;;13.07;47.19;100349.88;102979;1255;137564;-70
2023/05/29 02:51:39;;;;;;;10.20;3.20;;;;;;;13.08;47.25;100350.70;103131;1256;107771;-71
2023/05/29 02:54:06;;;;;;;7.20;3.90;;;;;;;13.09;47.21;100348.05;102968;1258;98297;-71
2023/05/29 02:56:34;;;;;;;8.30;3.40;;;;;;;13.10;47.31;100348.50;103060;1256;137442;-71
2023/05/29 02:59:01;;;;;;;6.10;3.00;;;;;;;13.13;47.22;100349.45;103066;1258;97798;-69
2023/05/29 03:01:29;;;;;;;5.80;3.40;;;;;;;13.16;47.30;100350.04;102949;1258;137605;-70
2023/05/29 03:03:57;;;;;;;9.70;4.20;;;;;;;13.19;47.17;100351.84;103038;1258;107352;-71
2023/05/29 03:06:25;;;;;;;5.70;3.00;;;;;;;13.22;47.09;100349.80;102872;1256;138042;-72
2023/05/29 03:08:52;;;;;;;7.20;3.40;;;;;;;13.25;47.12;100349.13;103197;1256;108279;-70
2023/05/29 03:11:23;;;;;;;8.80;3.50;;;;;;;13.29;47.07;100356.30;102928;1256;97705;-71
2023/05/29 03:13:52;;;;;;;5.00;3.30;;;;;;;13.35;47.03;100356.45;103061;1256;139122;-71
2023/05/29 03:16:19;;;;;;;12.40;3.10;;;;;;;13.40;47.10;100353.98;103102;1256;108184;-70
2023/05/29 03:18:46;;;;;;;5.90;2.70;;;;;;;13.44;47.04;100350.45;102820;1260;138246;-71
2023/05/29 03:21:17;;;;;;;6.50;2.90;;;;;;;13.49;46.91;100354.80;103045;1256;109340;-70
2023/05/29 03:23:45;;;;;;;6.40;3.20;;;;;;;13.53;46.83;100358.63;103068;1255;97861;-70
2023/05/29 03:26:13;;;;;;;8.70;3.30;;;;;;;13.58;46.66;100358.60;103044;1256;137709;-71
2023/05/29 03:28:41;;;;;;;6.00;2.90;;;;;;;13.62;46.66;100363.11;103011;1256;107378;-70
2023/05/29 03:31:09;;;;;;;13.20;3.30;;;;;;;13.68;46.64;100363.61;103069;1256;138356;-71
2023/05/29 03:33:37;;;;;;;10.50;3.40;;;;;;;13.73;46.71;100368.61;103193;1255;106878;-71
2023/05/29 03:36:16;;;;;;;9.80;3.50;;;;;;;13.78;46.84;100369.42;103253;1256;97827;-70
2023/05/29 03:38:47;;;;;;;6.70;3.10;;;;;;;13.84;46.81;100371.13;103191;1256;110515;-71
2023/05/29 03:41:25;;;;;;;12.50;4.10;;;;;;;13.90;47.03;100371.70;103152;1258;107498;-71
2023/05/29 03:43:53;;;;;;;12.00;4.50;;;;;;;13.95;47.43;100372.35;103395;1258;137920;-70
2023/05/29 03:46:21;;;;;;;13.30;3.70;;;;;;;14.00;47.60;100374.44;103174;1256;107795;-70
2023/05/29 03:48:48;;;;;;;10.20;4.40;;;;;;;14.04;47.27;100374.08;102963;1260;138683;-70
2023/05/29 03:51:16;;;;;;;9.90;4.80;;;;;;;14.11;47.63;100373.77;103231;1258;111122;-71
2023/05/29 03:53:44;;;;;;;10.80;4.50;;;;;;;14.15;47.50;100374.23;103106;1256;107316;-70
2023/05/29 03:56:11;;;;;;;11.20;4.30;;;;;;;14.21;47.66;100377.34;103033;1255;137983;-70
2023/05/29 03:58:39;;;;;;;10.30;4.80;;;;;;;14.25;47.60;100374.87;103217;1256;107925;-70
2023/05/29 04:01:08;;;;;;;14.90;5.20;;;;;;;14.31;47.68;100375.48;103071;1256;138569;-70
2023/05/29 04:03:36;;;;;;;12.50;5.30;;;;;;;14.37;47.89;100377.83;103150;1258;112401;-71
2023/05/29 04:06:03;;;;;;;13.90;5.30;;;;;;;14.42;48.09;100380.21;103131;1255;107059;-71
2023/05/29 04:08:30;;;;;;;14.40;5.00;;;;;;;14.47;47.93;100381.39;102965;1261;139784;-70
2023/05/29 04:10:58;;;;;;;12.60;5.00;;;;;;;14.56;47.39;100383.25;103056;1256;108087;-70
2023/05/29 04:13:28;;;;;;;17.10;6.00;;;;;;;14.67;47.59;100390.48;103077;1255;138150;-70
2023/05/29 04:15:55;;;;;;;18.50;6.70;;;;;;;14.76;48.23;100392.85;103097;1257;113231;-71
2023/05/29 04:18:23;;;;;;;13.40;5.60;;;;;;;14.84;48.27;100393.14;102980;1256;138737;-69
2023/05/29 04:20:50;;;;;;;9.80;3.40;;;;;;;14.93;47.57;100387.13;103026;1259;98169;-70
2023/05/29 04:23:17;;;;;;;6.10;2.80;;;;;;;15.01;46.55;100388.80;103044;1259;108124;-69
2023/05/29 04:25:45;;;;;;;7.80;3.20;;;;;;;15.11;45.97;100392.23;102834;1256;139777;-69
2023/05/29 04:28:13;;;;;;;10.90;3.90;;;;;;;15.19;45.74;100388.48;103109;1260;111170;-69
2023/05/29 04:30:41;;;;;;;9.00;3.40;;;;;;;15.28;45.71;100392.77;103038;1258;138309;-70
2023/05/29 04:33:12;;;;;;;9.00;3.70;;;;;;;15.36;45.73;100392.38;103173;1261;96476;-69
2023/05/29 04:35:43;;;;;;;10.30;4.30;;;;;;;15.45;45.58;100386.34;103145;1255;107438;-70
2023/05/29 04:38:11;;;;;;;10.00;4.30;;;;;;;15.55;45.51;100386.35;102955;1259;138042;-72
2023/05/29 04:40:40;;;;;;;7.90;4.20;;;;;;;15.65;45.37;100388.86;103070;1260;111424;-69
2023/05/29 04:43:07;;;;;;;9.40;4.50;;;;;;;15.75;45.24;100391.48;102932;1256;137971;-73
2023/05/29 04:45:55;;;;;;;10.80;4.30;;;;;;;15.88;45.38;100394.47;103081;1256;97808;-71
2023/05/29 04:48:22;;;;;;;10.00;4.60;;;;;;;16.00;45.58;100394.04;102962;1259;138020;-71
2023/05/29 04:50:49;;;;;;;14.20;3.80;;;;;;;16.11;45.42;100395.03;102983;1256;97985;-71
2023/05/29 04:53:17;;;;;;;11.10;3.90;;;;;;;16.20;45.05;100390.16;103060;1255;111088;-71
2023/05/29 04:55:45;;;;;;;9.60;3.50;;;;;;;16.33;44.85;100390.16;102755;1256;138003;-71
2023/05/29 04:58:13;;;;;;;8.80;3.30;;;;;;;16.50;44.41;100385.73;103032;1256;97811;-71
2023/05/29 05:00:40;;;;;;;6.70;3.30;;;;;;;16.68;44.61;100388.64;102785;1261;137805;-71
2023/05/29 05:03:09;;;;;;;10.70;3.60;;;;;;;16.82;44.05;100385.21;103012;1255;97785;-71
2023/05/29 05:05:37;;;;;;;12.40;3.90;;;;;;;16.97;44.05;100381.26;104074;1256;112145;-71
2023/05/29 05:08:04;;;;;;;9.10;3.70;;;;;;;17.11;43.76;100382.17;102816;1256;137995;-72
2023/05/29 05:10:31;;;;;;;8.40;3.50;;;;;;;17.27;43.36;100381.13;103069;1261;97864;-72
2023/05/29 05:12:59;;;;;;;9.30;3.50;;;;;;;17.42;43.07;100378.31;102940;1257;138094;-72
2023/05/29 05:15:26;;;;;;;7.90;3.30;;;;;;;17.57;42.58;100376.39;103090;1260;98326;-71
2023/05/29 05:17:53;;;;;;;14.10;3.70;;;;;;;17.72;42.10;100380.41;103015;1255;110600;-71
2023/05/29 05:20:21;;;;;;;12.80;3.90;;;;;;;17.88;41.92;100380.84;103005;1255;138229;-71
2023/05/29 05:22:52;;;;;;;8.60;3.10;;;;;;;18.09;41.71;100384.33;103057;1260;98197;-67
2023/05/29 05:25:20;;;;;;;8.30;2.70;;;;;;;18.31;41.24;100384.05;103020;1256;137682;-67
2023/05/29 05:27:47;;;;;;;9.50;2.80;;;;;;;18.52;40.63;100379.03;103189;1254;97664;-67
2023/05/29 05:30:17;;;;;;;4.10;2.30;;;;;;;18.76;40.32;100375.96;103643;1257;111357;-67
2023/05/29 05:32:45;;;;;;;8.50;2.10;;;;;;;19.06;39.83;100374.55;103496;1256;109454;-67
2023/05/29 05:35:12;;;;;;;7.80;2.70;;;;;;;19.30;39.11;100376.62;103109;1259;97809;-67
2023/05/29 05:37:40;;;;;;;7.10;2.70;;;;;;;19.53;38.62;100375.50;103015;1259;138135;-67
2023/05/29 05:40:09;;;;;;;11.40;2.60;;;;;;;20.00;38.18;100381.23;103128;1256;97814;-68
2023/05/29 05:42:44;;;;;;;10.40;2.70;;;;;;;20.77;37.44;100381.09;103256;1257;138230;-67
2023/05/29 05:45:13;;;;;;;10.60;2.20;;;;;;;22.01;36.35;100380.34;103046;1256;108667;-68
2023/05/29 05:47:40;;;;;;;14.80;2.60;;;;;;;23.51;34.87;100374.21;103565;1255;97769;-70
2023/05/29 05:50:10;;;;;;;5.90;2.40;;;;;;;25.06;33.50;100368.29;102969;1258;138025;-70
2023/05/29 05:52:38;;;;;;;7.20;2.70;;;;;;;26.76;31.95;100358.45;103032;1256;97762;-70
2023/05/29 05:55:06;;;;;;;9.30;2.40;;;;;;;28.23;30.45;100358.77;102885;1261;137965;-70
2023/05/29 05:57:33;;;;;;;11.80;2.80;;;;;;;29.53;28.86;100356.07;103037;1258;107636;-70
2023/05/29 06:00:04;;;;;;;10.60;2.60;;;;;;;30.73;27.71;100358.17;102981;1258;97901;-70
2023/05/29 06:02:44;;;;;;;10.90;3.10;;;;;;;31.77;25.99;100352.70;102994;1257;137668;-70
2023/05/29 06:05:15;;;;;;;9.10;2.70;;;;;;;32.55;24.82;100351.73;103032;1261;97804;-70
2023/05/29 06:07:42;;;;;;;12.60;2.50;;;;;;;33.50;24.17;100350.23;102810;1256;137813;-70
2023/05/29 06:10:13;;;;;;;16.20;2.50;;;;;;;34.42;23.07;100347.09;103177;1260;100241;-70
2023/05/29 06:12:40;;;;;;;15.10;2.40;;;;;;;35.16;21.90;100345.49;102907;1260;138195;-71
2023/05/29 06:15:15;;;;;;;12.10;2.20;;;;;;;35.78;21.07;100341.48;103039;1257;98480;-72
2023/05/29 06:17:44;;;;;;;9.40;2.00;;;;;;;36.54;20.63;100340.54;102881;1259;97944;-72
2023/05/29 06:20:14;;;;;;;11.70;2.00;;;;;;;37.30;19.73;100335.94;103075;1256;139152;-72
2023/05/29 06:22:41;;;;;;;11.30;2.10;;;;;;;37.79;19.10;100339.16;103152;1259;99185;-72
2023/05/29 06:25:11;;;;;;;10.30;2.20;;;;;;;38.39;18.51;100343.62;102964;1256;138035;-72
2023/05/29 06:27:38;;;;;;;13.40;2.10;;;;;;;38.98;18.18;100346.24;103108;1256;100262;-72
2023/05/29 06:30:10;;;;;;;9.30;2.30;;;;;;;39.52;17.57;100345.61;103172;1258;97798;-73
2023/05/29 06:32:38;;;;;;;12.60;2.10;;;;;;;39.88;16.77;100343.29;103064;1260;137449;-73
2023/05/29 06:35:07;;;;;;;11.90;2.70;;;;;;;40.22;16.80;100343.43;103046;1255;100138;-73
2023/05/29 06:37:35;;;;;;;11.50;2.10;;;;;;;40.64;16.54;100343.55;103017;1256;138054;-73
2023/05/29 06:40:04;;;;;;;6.50;2.00;;;;;;;41.02;15.94;100344.03;103195;1254;100397;-73
2023/05/29 06:42:31;;;;;;;12.10;1.80;;;;;;;41.12;15.30;100341.65;103333;1256;138145;-73
2023/05/29 06:44:59;;;;;;;9.80;1.80;;;;;;;41.17;15.16;100336.86;103040;1260;102704;-72
2023/05/29 06:47:26;;;;;;;6.80;1.70;;;;;;;41.52;15.04;100332.36;103016;1257;99664;-72
2023/05/29 06:49:54;;;;;;;11.80;1.60;;;;;;;41.85;14.43;100329.91;102905;1256;137633;-74
2023/05/29 06:52:22;;;;;;;6.30;1.90;;;;;;;41.69;14.00;100336.34;102989;1258;99067;-73
2023/05/29 06:55:10;;;;;;;10.50;1.80;;;;;;;41.82;14.05;100342.54;102843;1258;138010;-72
2023/05/29 06:57:37;;;;;;;7.90;1.50;;;;;;;42.01;13.97;100343.39;103142;1255;102193;-66
2023/05/29 07:00:07;;;;;;;5.50;1.40;;;;;;;42.06;13.46;100342.36;103057;1261;100382;-65
2023/05/29 07:02:35;;;;;;;4.60;1.70;;;;;;;41.97;13.71;100341.48;103045;1257;137898;-65
2023/05/29 07:05:03;;;;;;;11.20;1.60;;;;;;;42.16;13.52;100346.13;102768;1259;570391;-66
2023/05/29 07:07:31;;;;;;;5.80;1.40;;;;;;;41.93;13.16;100340.86;103429;1256;137984;-66
2023/05/29 07:09:58;;;;;;;8.30;1.60;;;;;;;41.84;13.35;100345.52;102966;1256;104549;-65
2023/05/29 07:12:26;;;;;;;9.40;1.80;;;;;;;41.85;13.26;100344.65;103086;1256;100045;-65
2023/05/29 07:14:53;;;;;;;6.80;1.50;;;;;;;42.32;13.44;100345.83;103080;1262;98126;-66
2023/05/29 07:17:21;;;;;;;4.60;1.80;;;;;;;42.85;13.15;100347.60;103254;1256;101230;-65
2023/05/29 07:19:54;;;;;;;12.20;2.10;;;;;;;43.24;12.93;100352.52;102782;1260;137965;-66
2023/05/29 07:22:21;;;;;;;4.90;1.70;;;;;;;43.72;12.90;100352.25;103038;1256;104259;-66
2023/05/29 07:24:49;;;;;;;4.50;1.40;;;;;;;44.03;12.35;100352.88;103022;1259;142958;-66
2023/05/29 07:27:16;;;;;;;7.30;1.50;;;;;;;43.86;12.18;100353.45;103129;1260;97927;-66
2023/05/29 07:29:44;;;;;;;7.60;1.50;;;;;;;43.85;12.07;100356.08;103023;1260;99853;-66
2023/05/29 07:32:11;;;;;;;5.60;1.70;;;;;;;43.99;12.17;100356.16;103020;1261;137802;-66
2023/05/29 07:34:39;;;;;;;7.20;1.60;;;;;;;44.02;12.11;100356.66;103489;1256;102651;-66
2023/05/29 07:37:08;;;;;;;5.90;1.70;;;;;;;43.95;12.16;100353.38;103140;1255;138049;-66
2023/05/29 07:39:37;;;;;;;11.30;1.80;;;;;;;43.95;12.37;100356.02;103121;1256;97681;-66
2023/05/29 07:42:30;;;;;;;6.60;1.70;;;;;;;44.07;12.13;100353.23;102850;1258;138073;-66
2023/05/29 07:44:58;;;;;;;8.70;1.70;;;;;;;44.08;11.82;100354.02;103467;1256;97837;-66
2023/05/29 07:47:25;;;;;;;8.40;1.50;;;;;;;43.92;12.00;100355.90;103013;1256;103779;-65
2023/05/29 07:49:54;;;;;;;11.40;1.50;;;;;;;44.03;12.02;100352.33;102977;1258;138075;-66
2023/05/29 07:52:23;;;;;;;6.60;1.70;;;;;;;44.05;11.93;100354.16;103151;1261;97823;-65
2023/05/29 07:54:50;;;;;;;6.40;1.80;;;;;;;44.06;11.68;100353.27;103104;1256;137833;-66
2023/05/29 07:57:18;;;;;;;7.50;1.60;;;;;;;43.93;11.63;100355.85;103731;1255;97036;-66
2023/05/29 07:59:49;;;;;;;6.40;1.70;;;;;;;43.92;11.90;100356.83;103097;1256;103508;-66
2023/05/29 08:02:17;;;;;;;7.70;1.80;;;;;;;43.92;11.69;100352.64;103451;1256;139088;-66
2023/05/29 08:05:03;;;;;;;10.80;1.60;;;;;;;43.97;11.57;100352.30;103228;1256;97823;-67
2023/05/29 08:07:32;;;;;;;6.00;1.80;;;;;;;43.77;11.70;100355.41;103473;1258;137985;-66
2023/05/29 08:09:59;;;;;;;5.10;2.00;;;;;;;43.76;11.88;100359.31;103266;1260;97680;-67
2023/05/29 08:12:27;;;;;;;8.40;1.50;;;;;;;43.53;11.82;100356.35;103200;1256;112157;-67
2023/05/29 08:14:56;;;;;;;5.20;1.40;;;;;;;43.38;11.84;100358.21;103175;1257;99849;-66
2023/05/29 08:17:23;;;;;;;5.80;1.80;;;;;;;43.24;11.79;100355.15;103273;1256;97887;-66
2023/05/29 08:19:51;;;;;;;5.70;1.80;;;;;;;43.14;11.79;100353.55;103410;1257;137617;-67
2023/05/29 08:22:18;;;;;;;6.20;1.90;;;;;;;43.11;11.92;100355.02;103406;1256;97665;-66
2023/05/29 08:24:45;;;;;;;9.30;1.80;;;;;;;43.17;11.91;100353.52;103154;1256;137798;-67
2023/05/29 08:27:13;;;;;;;10.50;1.70;;;;;;;43.09;11.87;100350.38;103168;1267;100701;-67
2023/05/29 08:29:40;;;;;;;10.70;2.00;;;;;;;42.93;11.96;100349.72;103182;1256;97909;-67
2023/05/29 08:32:08;;;;;;;10.80;2.00;;;;;;;42.78;11.82;100353.99;103125;1258;137865;-67
2023/05/29 08:34:35;;;;;;;4.40;1.90;;;;;;;42.64;11.95;100350.98;103688;1256;97807;-67
2023/05/29 08:37:03;;;;;;;5.10;1.80;;;;;;;42.51;12.03;100354.02;103833;1254;137845;-66
2023/05/29 08:39:30;;;;;;;4.10;1.60;;;;;;;42.39;12.16;100356.99;103270;1256;100277;-67
2023/05/29 08:42:06;;;;;;;9.10;2.00;;;;;;;42.19;11.90;100354.05;103229;1256;97784;-66
2023/05/29 08:44:34;;;;;;;9.40;1.80;;;;;;;42.02;12.13;100351.29;103443;1258;137840;-67
2023/05/29 08:47:04;;;;;;;5.00;1.90;;;;;;;41.85;12.08;100355.73;103235;1257;97772;-66
2023/05/29 08:49:35;;;;;;;8.70;2.80;;;;;;;41.76;12.27;100360.45;103313;1258;137940;-67
2023/05/29 08:52:10;;;;;;;11.00;2.40;;;;;;;41.57;12.17;100357.14;103200;1256;100547;-66
2023/05/29 08:54:37;;;;;;;15.60;2.20;;;;;;;41.29;12.23;100354.98;103581;1256;138282;-67
2023/05/29 08:57:06;;;;;;;6.40;2.30;;;;;;;40.98;12.22;100353.83;103330;1258;100531;-67
2023/05/29 08:59:35;;;;;;;11.20;2.40;;;;;;;40.71;12.43;100350.23;103554;1256;99299;-67
2023/05/29 09:02:03;;;;;;;13.90;2.50;;;;;;;40.40;12.65;100345.26;103184;1258;138417;-67
2023/05/29 09:04:32;;;;;;;6.90;2.30;;;;;;;40.20;12.78;100344.55;103459;1259;100167;-66
2023/05/29 09:07:00;;;;;;;11.00;2.10;;;;;;;40.06;12.93;100345.02;103353;1256;137994;-66
2023/05/29 09:09:28;;;;;;;56.00;6.00;;;;;;;39.94;12.82;100345.12;103150;1258;100666;-66
2023/05/29 09:11:56;;;;;;;25.30;3.70;;;;;;;39.67;13.14;100344.17;103190;1259;97777;-66
2023/05/29 09:14:36;;;;;;;16.30;2.40;;;;;;;39.45;13.16;100341.55;103084;1258;137829;-66
2023/05/29 09:17:06;;;;;;;11.80;2.00;;;;;;;39.26;13.10;100342.63;103312;1257;99809;-66
2023/05/29 09:19:33;;;;;;;13.10;2.30;;;;;;;38.96;12.90;100342.27;103391;1255;137836;-66
2023/05/29 09:22:09;;;;;;;9.60;2.00;;;;;;;38.81;13.07;100340.71;103287;1256;101143;-65
2023/05/29 09:24:38;;;;;;;5.00;2.00;;;;;;;38.26;12.87;100338.90;103548;1258;138067;-66
2023/05/29 09:27:07;;;;;;;16.50;3.00;;;;;;;37.54;13.47;100341.48;103437;1256;103735;-67
2023/05/29 09:29:38;;;;;;;16.50;3.20;;;;;;;37.42;13.86;100340.88;103438;1257;100802;-66
2023/05/29 09:32:09;;;;;;;14.80;2.30;;;;;;;37.39;13.96;100340.49;102964;1257;138053;-67
2023/05/29 09:34:37;;;;;;;13.70;2.90;;;;;;;37.41;13.95;100340.64;103437;1258;99941;-67
2023/05/29 09:37:08;;;;;;;17.30;3.00;;;;;;;37.22;13.82;100342.52;103077;1257;138117;-67
2023/05/29 09:39:45;;;;;;;20.00;3.40;;;;;;;37.20;14.04;100340.23;103644;1258;103587;-66
2023/05/29 09:42:12;;;;;;;17.90;3.20;;;;;;;37.40;14.35;100334.65;103331;1254;100382;-66
2023/05/29 09:44:40;;;;;;;17.80;3.20;;;;;;;37.47;14.21;100333.45;103217;1258;138055;-66
2023/05/29 09:47:08;;;;;;;20.70;3.60;;;;;;;37.42;14.17;100328.15;103534;1259;100453;-66
2023/05/29 09:49:38;;;;;;;19.60;2.70;;;;;;;37.49;14.32;100328.66;103036;1261;138185;-66
2023/05/29 09:52:07;;;;;;;13.60;3.60;;;;;;;37.57;14.22;100324.59;103164;1256;104550;-65
2023/05/29 09:54:37;;;;;;;11.40;2.70;;;;;;;37.66;14.20;100324.69;103397;1258;138294;-66
2023/05/29 09:57:06;;;;;;;24.30;3.80;;;;;;;37.66;14.16;100320.55;103076;1259;97791;-65
2023/05/29 09:59:35;;;;;;;17.00;3.10;;;;;;;37.54;14.21;100319.11;103299;1257;99932;-66
2023/05/29 10:02:07;;;;;;;14.80;3.40;;;;;;;37.41;14.02;100323.68;103089;1260;138108;-65
2023/05/29 10:04:36;;;;;;;11.40;2.50;;;;;;;37.25;14.12;100320.66;103342;1258;104146;-66
2023/05/29 10:07:09;;;;;;;16.40;2.90;;;;;;;37.13;14.36;100320.24;103088;1256;138294;-66
2023/05/29 10:09:39;;;;;;;18.30;2.80;;;;;;;37.02;14.47;100318.08;103863;1259;97770;-66
2023/05/29 10:12:09;;;;;;;11.70;2.90;;;;;;;36.88;14.46;100316.98;103640;1258;100334;-66
2023/05/29 10:14:38;;;;;;;11.50;3.10;;;;;;;36.64;14.31;100315.98;103181;1260;138094;-66
2023/05/29 10:17:10;;;;;;;13.80;3.10;;;;;;;36.37;14.70;100318.30;103605;1257;104263;-67
2023/05/29 10:19:39;;;;;;;13.80;2.90;;;;;;;36.30;14.84;100315.98;103096;1257;138028;-65
2023/05/29 10:22:07;;;;;;;10.80;2.50;;;;;;;36.28;14.74;100312.25;103250;1260;97697;-66
2023/05/29 10:24:36;;;;;;;10.50;2.80;;;;;;;36.16;14.72;100312.70;103521;1259;137968;-66
2023/05/29 10:27:05;;;;;;;7.40;2.60;;;;;;;36.02;14.89;100314.64;103398;1260;97916;-66
2023/05/29 10:29:37;;;;;;;10.10;2.50;;;;;;;35.88;14.65;100313.88;103637;1257;103904;-65
2023/05/29 10:32:21;;;;;;;14.30;2.90;;;;;;;35.52;14.75;100312.52;103102;1260;138639;-66
2023/05/29 10:34:57;;;;;;;8.90;2.50;;;;;;;35.15;15.13;100313.23;103281;1257;97891;-64
2023/05/29 10:37:30;;;;;;;;;;;;;;;34.98;15.26;100321.13;103089;1260;137893;-65
2023/05/29 10:40:08;;;;;;;12.40;2.20;;;;;;;34.70;15.43;100320.71;103364;1259;97892;-66
2023/05/29 10:42:48;;;;;;;8.30;2.70;;;;;;;34.36;15.60;100318.82;103563;1257;138251;-65
2023/05/29 10:45:48;;;;;;;10.40;2.50;;;;;;;33.95;15.77;100317.52;103286;1259;100073;-66
2023/05/29 10:48:40;;;;;;;9.50;2.40;;;;;;;33.71;16.27;100318.68;103716;1258;97807;-66
2023/05/29 10:51:10;;;;;;;8.60;2.70;;;;;;;33.43;16.43;100319.02;103703;1255;97809;-66
2023/05/29 10:53:40;;;;;;;11.10;2.80;;;;;;;33.21;16.47;100314.31;103291;1255;97795;-65
2023/05/29 10:56:16;;;;;;;7.50;2.70;;;;;;;32.95;16.76;100317.87;103293;1255;138112;-65
2023/05/29 10:58:43;;;;;;;12.80;2.40;;;;;;;32.82;17.15;100311.23;103909;1258;99204;-65
2023/05/29 11:01:11;;;;;;;7.40;2.80;;;;;;;32.68;16.94;100311.35;103238;1258;138555;-65
2023/05/29 11:03:38;;;;;;;11.10;2.20;;;;;;;32.46;17.01;100305.62;103256;1259;100742;-65
2023/05/29 11:06:09;;;;;;;8.00;2.40;;;;;;;32.23;17.18;100299.87;103651;1257;97961;-65
2023/05/29 11:08:45;;;;;;;5.70;2.50;;;;;;;32.01;17.49;100297.95;103335;1257;138160;-65
2023/05/29 11:11:14;;;;;;;6.00;2.10;;;;;;;31.85;17.78;100295.73;103438;1258;107691;-65
2023/05/29 11:13:44;;;;;;;8.40;2.20;;;;;;;31.35;17.44;100295.53;103398;1256;137852;-65
2023/05/29 11:16:21;;;;;;;7.50;2.30;;;;;;;30.87;18.08;100296.95;103285;1256;108935;-65
2023/05/29 11:18:49;;;;;;;7.40;2.40;;;;;;;30.69;18.58;100298.19;103973;1256;138109;-66
2023/05/29 11:21:34;;;;;;;7.40;2.30;;;;;;;30.64;18.83;100301.61;103308;1259;111779;-66